<?xml version="1.0" encoding="UTF-8" standalone="no" ?>
<gpx xmlns="http://www.topografix.com/GPX/1/1" xmlns:xsi="http://www.w3.org/2001/XMLSchema-instance" xsi:schemaLocation="http://www.topografix.com/GPX/1/1 http://www.topografix.com/GPX/1/1/gpx.xsd" version="1.1" creator="VisuGPX - https://www.visugpx.com">
  <metadata>
    <name>14664189-ST CLEMENT</name>
    <desc><![CDATA[Circuit non balisé, à faire avec la carte en main où GPS de rando.]]></desc>
  </metadata>
  <trk>
    <name><![CDATA[14664189-ST CLEMENT]]></name>
    <trkseg>
      <trkpt lat="46.05797" lon="3.70127">
        <ele>542</ele>
        <time>2022-04-30T05:24:08Z</time>
      </trkpt>
      <trkpt lat="46.058" lon="3.70229">
        <ele>530</ele>
        <time>2022-04-30T05:25:43Z</time>
      </trkpt>
      <trkpt lat="46.05841" lon="3.70288">
        <ele>519</ele>
        <time>2022-04-30T05:27:00Z</time>
      </trkpt>
      <trkpt lat="46.05882" lon="3.70247">
        <ele>523</ele>
        <time>2022-04-30T05:28:06Z</time>
      </trkpt>
      <trkpt lat="46.05968" lon="3.70191">
        <ele>521</ele>
        <time>2022-04-30T05:30:12Z</time>
      </trkpt>
      <trkpt lat="46.06049" lon="3.70185">
        <ele>506</ele>
        <time>2022-04-30T05:32:01Z</time>
      </trkpt>
      <trkpt lat="46.0612" lon="3.70264">
        <ele>487</ele>
        <time>2022-04-30T05:34:00Z</time>
      </trkpt>
      <trkpt lat="46.06155" lon="3.70361">
        <ele>487</ele>
        <time>2022-04-30T05:35:42Z</time>
      </trkpt>
      <trkpt lat="46.06233" lon="3.7035">
        <ele>487</ele>
        <time>2022-04-30T05:37:26Z</time>
      </trkpt>
      <trkpt lat="46.06312" lon="3.70529">
        <ele>496</ele>
        <time>2022-04-30T05:40:43Z</time>
      </trkpt>
      <trkpt lat="46.06448" lon="3.7068">
        <ele>513</ele>
        <time>2022-04-30T05:44:32Z</time>
      </trkpt>
      <trkpt lat="46.0649" lon="3.7092">
        <ele>527</ele>
        <time>2022-04-30T05:48:21Z</time>
      </trkpt>
      <trkpt lat="46.06655" lon="3.70963">
        <ele>531</ele>
        <time>2022-04-30T05:52:05Z</time>
      </trkpt>
      <trkpt lat="46.06762" lon="3.70905">
        <ele>536</ele>
        <time>2022-04-30T05:54:37Z</time>
      </trkpt>
      <trkpt lat="46.06777" lon="3.70781">
        <ele>524</ele>
        <time>2022-04-30T05:56:34Z</time>
      </trkpt>
      <trkpt lat="46.06987" lon="3.70793">
        <ele>546</ele>
        <time>2022-04-30T06:01:14Z</time>
      </trkpt>
      <trkpt lat="46.07103" lon="3.70635">
        <ele>533</ele>
        <time>2022-04-30T06:04:47Z</time>
      </trkpt>
      <trkpt lat="46.07193" lon="3.70635">
        <ele>537</ele>
        <time>2022-04-30T06:06:47Z</time>
      </trkpt>
      <trkpt lat="46.07282" lon="3.70585">
        <ele>531</ele>
        <time>2022-04-30T06:08:55Z</time>
      </trkpt>
      <trkpt lat="46.0739" lon="3.70374">
        <ele>510</ele>
        <time>2022-04-30T06:12:57Z</time>
      </trkpt>
      <trkpt lat="46.07446" lon="3.70513">
        <ele>525</ele>
        <time>2022-04-30T06:15:26Z</time>
      </trkpt>
      <trkpt lat="46.07492" lon="3.70708">
        <ele>536</ele>
        <time>2022-04-30T06:18:37Z</time>
      </trkpt>
      <trkpt lat="46.07377" lon="3.7078">
        <ele>561</ele>
        <time>2022-04-30T06:21:24Z</time>
      </trkpt>
      <trkpt lat="46.07466" lon="3.70874">
        <ele>561</ele>
        <time>2022-04-30T06:23:51Z</time>
      </trkpt>
      <trkpt lat="46.07502" lon="3.71067">
        <ele>585</ele>
        <time>2022-04-30T06:26:57Z</time>
      </trkpt>
      <trkpt lat="46.07549" lon="3.71026">
        <ele>582</ele>
        <time>2022-04-30T06:28:10Z</time>
      </trkpt>
      <trkpt lat="46.07619" lon="3.71011">
        <ele>582</ele>
        <time>2022-04-30T06:29:44Z</time>
      </trkpt>
      <trkpt lat="46.07679" lon="3.71079">
        <ele>593</ele>
        <time>2022-04-30T06:31:26Z</time>
      </trkpt>
      <trkpt lat="46.07683" lon="3.71161">
        <ele>598</ele>
        <time>2022-04-30T06:32:42Z</time>
      </trkpt>
      <trkpt lat="46.0756" lon="3.71284">
        <ele>623</ele>
        <time>2022-04-30T06:36:02Z</time>
      </trkpt>
      <trkpt lat="46.07543" lon="3.7143">
        <ele>637</ele>
        <time>2022-04-30T06:38:19Z</time>
      </trkpt>
      <trkpt lat="46.07484" lon="3.71556">
        <ele>661</ele>
        <time>2022-04-30T06:40:40Z</time>
      </trkpt>
      <trkpt lat="46.07492" lon="3.71642">
        <ele>661</ele>
        <time>2022-04-30T06:42:00Z</time>
      </trkpt>
      <trkpt lat="46.07593" lon="3.71694">
        <ele>656</ele>
        <time>2022-04-30T06:44:23Z</time>
      </trkpt>
      <trkpt lat="46.07606" lon="3.718">
        <ele>659</ele>
        <time>2022-04-30T06:46:03Z</time>
      </trkpt>
      <trkpt lat="46.07539" lon="3.71891">
        <ele>683</ele>
        <time>2022-04-30T06:48:06Z</time>
      </trkpt>
      <trkpt lat="46.07525" lon="3.71994">
        <ele>684</ele>
        <time>2022-04-30T06:49:43Z</time>
      </trkpt>
      <trkpt lat="46.0746" lon="3.72055">
        <ele>691</ele>
        <time>2022-04-30T06:51:26Z</time>
      </trkpt>
      <trkpt lat="46.07286" lon="3.72328">
        <ele>679</ele>
        <time>2022-04-30T06:57:10Z</time>
      </trkpt>
      <trkpt lat="46.07281" lon="3.72396">
        <ele>680</ele>
        <time>2022-04-30T06:58:13Z</time>
      </trkpt>
      <trkpt lat="46.07293" lon="3.72512">
        <ele>689</ele>
        <time>2022-04-30T07:00:01Z</time>
      </trkpt>
      <trkpt lat="46.0739" lon="3.72513">
        <ele>681</ele>
        <time>2022-04-30T07:02:11Z</time>
      </trkpt>
      <trkpt lat="46.07429" lon="3.72531">
        <ele>687</ele>
        <time>2022-04-30T07:03:06Z</time>
      </trkpt>
      <trkpt lat="46.07498" lon="3.725">
        <ele>688</ele>
        <time>2022-04-30T07:04:42Z</time>
      </trkpt>
      <trkpt lat="46.07622" lon="3.72429">
        <ele>693</ele>
        <time>2022-04-30T07:07:40Z</time>
      </trkpt>
      <trkpt lat="46.07695" lon="3.72449">
        <ele>706</ele>
        <time>2022-04-30T07:09:19Z</time>
      </trkpt>
      <trkpt lat="46.07486" lon="3.72697">
        <ele>730</ele>
        <time>2022-04-30T07:15:20Z</time>
      </trkpt>
      <trkpt lat="46.0738" lon="3.72747">
        <ele>735</ele>
        <time>2022-04-30T07:17:49Z</time>
      </trkpt>
      <trkpt lat="46.07317" lon="3.72776">
        <ele>736</ele>
        <time>2022-04-30T07:19:18Z</time>
      </trkpt>
      <trkpt lat="46.07289" lon="3.72862">
        <ele>746</ele>
        <time>2022-04-30T07:20:45Z</time>
      </trkpt>
      <trkpt lat="46.07217" lon="3.72818">
        <ele>746</ele>
        <time>2022-04-30T07:22:30Z</time>
      </trkpt>
      <trkpt lat="46.07149" lon="3.72745">
        <ele>754</ele>
        <time>2022-04-30T07:24:23Z</time>
      </trkpt>
      <trkpt lat="46.07103" lon="3.72439">
        <ele>737</ele>
        <time>2022-04-30T07:29:13Z</time>
      </trkpt>
      <trkpt lat="46.07075" lon="3.72385">
        <ele>740</ele>
        <time>2022-04-30T07:30:15Z</time>
      </trkpt>
      <trkpt lat="46.07004" lon="3.72352">
        <ele>742</ele>
        <time>2022-04-30T07:31:55Z</time>
      </trkpt>
      <trkpt lat="46.06924" lon="3.72424">
        <ele>734</ele>
        <time>2022-04-30T07:34:01Z</time>
      </trkpt>
      <trkpt lat="46.06855" lon="3.72538">
        <ele>732</ele>
        <time>2022-04-30T07:36:21Z</time>
      </trkpt>
      <trkpt lat="46.06797" lon="3.72589">
        <ele>732</ele>
        <time>2022-04-30T07:37:51Z</time>
      </trkpt>
      <trkpt lat="46.06705" lon="3.72561">
        <ele>712</ele>
        <time>2022-04-30T07:39:57Z</time>
      </trkpt>
      <trkpt lat="46.06657" lon="3.72551">
        <ele>703</ele>
        <time>2022-04-30T07:41:02Z</time>
      </trkpt>
      <trkpt lat="46.06563" lon="3.72686">
        <ele>714</ele>
        <time>2022-04-30T07:43:59Z</time>
      </trkpt>
      <trkpt lat="46.0645" lon="3.7272">
        <ele>711</ele>
        <time>2022-04-30T07:46:33Z</time>
      </trkpt>
      <trkpt lat="46.06369" lon="3.72773">
        <ele>710</ele>
        <time>2022-04-30T07:48:31Z</time>
      </trkpt>
      <trkpt lat="46.06331" lon="3.72778">
        <ele>704</ele>
        <time>2022-04-30T07:49:22Z</time>
      </trkpt>
      <trkpt lat="46.06301" lon="3.72776">
        <ele>700</ele>
        <time>2022-04-30T07:50:02Z</time>
      </trkpt>
      <trkpt lat="46.06266" lon="3.72758">
        <ele>694</ele>
        <time>2022-04-30T07:50:52Z</time>
      </trkpt>
      <trkpt lat="46.06252" lon="3.7273">
        <ele>690</ele>
        <time>2022-04-30T07:51:24Z</time>
      </trkpt>
      <trkpt lat="46.0623" lon="3.7272">
        <ele>687</ele>
        <time>2022-04-30T07:51:55Z</time>
      </trkpt>
      <trkpt lat="46.06227" lon="3.72674">
        <ele>684</ele>
        <time>2022-04-30T07:52:38Z</time>
      </trkpt>
      <trkpt lat="46.06191" lon="3.72674">
        <ele>681</ele>
        <time>2022-04-30T07:53:26Z</time>
      </trkpt>
      <trkpt lat="46.05973" lon="3.72362">
        <ele>642</ele>
        <time>2022-04-30T08:00:16Z</time>
      </trkpt>
      <trkpt lat="46.05943" lon="3.72231">
        <ele>629</ele>
        <time>2022-04-30T08:02:23Z</time>
      </trkpt>
      <trkpt lat="46.05967" lon="3.72008">
        <ele>605</ele>
        <time>2022-04-30T08:05:52Z</time>
      </trkpt>
      <trkpt lat="46.05971" lon="3.71683">
        <ele>581</ele>
        <time>2022-04-30T08:10:53Z</time>
      </trkpt>
      <trkpt lat="46.06035" lon="3.71615">
        <ele>577</ele>
        <time>2022-04-30T08:12:39Z</time>
      </trkpt>
      <trkpt lat="46.06083" lon="3.71668">
        <ele>583</ele>
        <time>2022-04-30T08:14:00Z</time>
      </trkpt>
      <trkpt lat="46.0611" lon="3.71629">
        <ele>582</ele>
        <time>2022-04-30T08:14:51Z</time>
      </trkpt>
      <trkpt lat="46.06137" lon="3.71506">
        <ele>578</ele>
        <time>2022-04-30T08:16:51Z</time>
      </trkpt>
      <trkpt lat="46.06158" lon="3.7129">
        <ele>561</ele>
        <time>2022-04-30T08:20:13Z</time>
      </trkpt>
      <trkpt lat="46.06204" lon="3.71117">
        <ele>542</ele>
        <time>2022-04-30T08:23:04Z</time>
      </trkpt>
      <trkpt lat="46.06187" lon="3.70987">
        <ele>528</ele>
        <time>2022-04-30T08:25:07Z</time>
      </trkpt>
      <trkpt lat="46.06226" lon="3.70856">
        <ele>516</ele>
        <time>2022-04-30T08:27:19Z</time>
      </trkpt>
      <trkpt lat="46.06187" lon="3.70768">
        <ele>509</ele>
        <time>2022-04-30T08:28:55Z</time>
      </trkpt>
      <trkpt lat="46.06211" lon="3.70712">
        <ele>504</ele>
        <time>2022-04-30T08:29:56Z</time>
      </trkpt>
      <trkpt lat="46.06199" lon="3.70582">
        <ele>494</ele>
        <time>2022-04-30T08:31:58Z</time>
      </trkpt>
      <trkpt lat="46.06227" lon="3.7053">
        <ele>492</ele>
        <time>2022-04-30T08:32:59Z</time>
      </trkpt>
      <trkpt lat="46.06218" lon="3.70444">
        <ele>490</ele>
        <time>2022-04-30T08:34:19Z</time>
      </trkpt>
      <trkpt lat="46.0619" lon="3.70385">
        <ele>488</ele>
        <time>2022-04-30T08:35:25Z</time>
      </trkpt>
      <trkpt lat="46.06147" lon="3.70388">
        <ele>487</ele>
        <time>2022-04-30T08:36:23Z</time>
      </trkpt>
      <trkpt lat="46.06121" lon="3.70308">
        <ele>487</ele>
        <time>2022-04-30T08:37:45Z</time>
      </trkpt>
      <trkpt lat="46.06059" lon="3.70231">
        <ele>494</ele>
        <time>2022-04-30T08:39:34Z</time>
      </trkpt>
      <trkpt lat="46.0599" lon="3.70209">
        <ele>510</ele>
        <time>2022-04-30T08:41:08Z</time>
      </trkpt>
      <trkpt lat="46.0592" lon="3.70237">
        <ele>520</ele>
        <time>2022-04-30T08:42:45Z</time>
      </trkpt>
      <trkpt lat="46.05869" lon="3.70285">
        <ele>515</ele>
        <time>2022-04-30T08:44:06Z</time>
      </trkpt>
      <trkpt lat="46.05839" lon="3.70311">
        <ele>513</ele>
        <time>2022-04-30T08:44:53Z</time>
      </trkpt>
      <trkpt lat="46.05797" lon="3.70258">
        <ele>525</ele>
        <time>2022-04-30T08:46:07Z</time>
      </trkpt>
      <trkpt lat="46.05786" lon="3.70139">
        <ele>540</ele>
        <time>2022-04-30T08:47:59Z</time>
      </trkpt>
    </trkseg>
  </trk>
</gpx>